sensor_id;sensor_type;location;lat;lon;timestamp;P1;durP1;ratioP1;P2;durP2;ratioP2
70953;SDS011;58618;47.490;8.736;2022-08-01T00:00:07;5.15;;;4.40;;
70953;SDS011;58618;47.490;8.736;2022-08-01T00:02:56;5.38;;;4.35;;
70953;SDS011;58618;47.490;8.736;2022-08-01T00:05:43;4.90;;;4.15;;
70953;SDS011;58618;47.490;8.736;2022-08-01T00:08:31;6.37;;;4.27;;
70953;SDS011;58618;47.490;8.736;2022-08-01T00:11:18;5.50;;;4.97;;
70953;SDS011;58618;47.490;8.736;2022-08-01T00:14:07;9.43;;;4.57;;
70953;SDS011;58618;47.490;8.736;2022-08-01T00:16:56;7.43;;;5.03;;
70953;SDS011;58618;47.490;8.736;2022-08-01T00:19:43;7.80;;;5.70;;
70953;SDS011;58618;47.490;8.736;2022-08-01T00:22:31;6.90;;;6.20;;
70953;SDS011;58618;47.490;8.736;2022-08-01T00:25:19;8.07;;;6.05;;
70953;SDS011;58618;47.490;8.736;2022-08-01T00:28:06;6.88;;;5.18;;
70953;SDS011;58618;47.490;8.736;2022-08-01T00:30:55;7.15;;;5.07;;
70953;SDS011;58618;47.490;8.736;2022-08-01T00:33:43;5.18;;;4.68;;
70953;SDS011;58618;47.490;8.736;2022-08-01T00:36:30;6.67;;;5.03;;
70953;SDS011;58618;47.490;8.736;2022-08-01T00:39:17;8.52;;;5.97;;
70953;SDS011;58618;47.490;8.736;2022-08-01T00:42:05;7.38;;;5.50;;
70953;SDS011;58618;47.490;8.736;2022-08-01T00:44:54;6.32;;;5.47;;
70953;SDS011;58618;47.490;8.736;2022-08-01T00:47:42;5.65;;;5.03;;
70953;SDS011;58618;47.490;8.736;2022-08-01T00:50:30;6.53;;;5.10;;
70953;SDS011;58618;47.490;8.736;2022-08-01T00:53:17;6.28;;;5.30;;
70953;SDS011;58618;47.490;8.736;2022-08-01T00:56:05;5.97;;;5.20;;
70953;SDS011;58618;47.490;8.736;2022-08-01T00:58:53;5.57;;;4.60;;
70953;SDS011;58618;47.490;8.736;2022-08-01T01:01:41;8.95;;;7.10;;
70953;SDS011;58618;47.490;8.736;2022-08-01T01:04:30;9.13;;;7.13;;
70953;SDS011;58618;47.490;8.736;2022-08-01T01:07:19;10.10;;;7.10;;
70953;SDS011;58618;47.490;8.736;2022-08-01T01:10:12;7.13;;;5.88;;
70953;SDS011;58618;47.490;8.736;2022-08-01T01:13:04;6.53;;;5.30;;
70953;SDS011;58618;47.490;8.736;2022-08-01T01:15:55;7.75;;;4.70;;
70953;SDS011;58618;47.490;8.736;2022-08-01T01:18:46;5.87;;;4.67;;
70953;SDS011;58618;47.490;8.736;2022-08-01T01:21:49;5.28;;;4.70;;
70953;SDS011;58618;47.490;8.736;2022-08-01T01:24:58;5.63;;;5.00;;
70953;SDS011;58618;47.490;8.736;2022-08-01T01:27:57;5.50;;;4.95;;
70953;SDS011;58618;47.490;8.736;2022-08-01T01:30:54;6.80;;;4.78;;
70953;SDS011;58618;47.490;8.736;2022-08-01T01:33:44;5.10;;;4.50;;
70953;SDS011;58618;47.490;8.736;2022-08-01T01:36:31;5.75;;;4.50;;
70953;SDS011;58618;47.490;8.736;2022-08-01T01:39:19;5.18;;;4.68;;
70953;SDS011;58618;47.490;8.736;2022-08-01T01:42:08;4.70;;;4.22;;
70953;SDS011;58618;47.490;8.736;2022-08-01T01:44:57;5.78;;;4.47;;
70953;SDS011;58618;47.490;8.736;2022-08-01T01:47:48;7.43;;;4.63;;
70953;SDS011;58618;47.490;8.736;2022-08-01T01:50:36;6.10;;;4.55;;
70953;SDS011;58618;47.490;8.736;2022-08-01T01:53:25;6.18;;;4.70;;
70953;SDS011;58618;47.490;8.736;2022-08-01T01:56:15;4.82;;;4.32;;
70953;SDS011;58618;47.490;8.736;2022-08-01T01:59:03;9.02;;;4.80;;
70953;SDS011;58618;47.490;8.736;2022-08-01T02:01:51;6.03;;;4.33;;
70953;SDS011;58618;47.490;8.736;2022-08-01T02:04:43;6.13;;;4.72;;
70953;SDS011;58618;47.490;8.736;2022-08-01T02:07:33;5.32;;;4.82;;
70953;SDS011;58618;47.490;8.736;2022-08-01T02:10:22;5.35;;;4.43;;
70953;SDS011;58618;47.490;8.736;2022-08-01T02:13:11;4.82;;;4.40;;
70953;SDS011;58618;47.490;8.736;2022-08-01T02:15:59;5.00;;;4.43;;
70953;SDS011;58618;47.490;8.736;2022-08-01T02:18:47;5.10;;;4.60;;
70953;SDS011;58618;47.490;8.736;2022-08-01T02:21:37;6.63;;;4.32;;
70953;SDS011;58618;47.490;8.736;2022-08-01T02:24:32;8.38;;;4.32;;
70953;SDS011;58618;47.490;8.736;2022-08-01T02:27:24;6.18;;;4.70;;
70953;SDS011;58618;47.490;8.736;2022-08-01T02:30:15;5.30;;;4.47;;
70953;SDS011;58618;47.490;8.736;2022-08-01T02:33:04;4.60;;;4.10;;
70953;SDS011;58618;47.490;8.736;2022-08-01T02:35:56;6.30;;;4.57;;
70953;SDS011;58618;47.490;8.736;2022-08-01T02:38:48;5.57;;;4.10;;
70953;SDS011;58618;47.490;8.736;2022-08-01T02:41:36;9.35;;;5.25;;
70953;SDS011;58618;47.490;8.736;2022-08-01T02:44:28;6.97;;;4.57;;
70953;SDS011;58618;47.490;8.736;2022-08-01T02:47:19;5.93;;;4.50;;
70953;SDS011;58618;47.490;8.736;2022-08-01T02:50:08;5.13;;;4.53;;
70953;SDS011;58618;47.490;8.736;2022-08-01T02:52:59;5.85;;;4.40;;
70953;SDS011;58618;47.490;8.736;2022-08-01T02:55:49;5.05;;;4.40;;
70953;SDS011;58618;47.490;8.736;2022-08-01T02:58:39;4.60;;;4.10;;
70953;SDS011;58618;47.490;8.736;2022-08-01T03:01:29;4.68;;;4.15;;
70953;SDS011;58618;47.490;8.736;2022-08-01T03:04:18;4.90;;;4.40;;
70953;SDS011;58618;47.490;8.736;2022-08-01T03:07:09;8.15;;;4.20;;
70953;SDS011;58618;47.490;8.736;2022-08-01T03:09:57;4.78;;;4.13;;
70953;SDS011;58618;47.490;8.736;2022-08-01T03:12:46;4.30;;;3.90;;
70953;SDS011;58618;47.490;8.736;2022-08-01T03:15:37;5.03;;;3.90;;
70953;SDS011;58618;47.490;8.736;2022-08-01T03:18:27;7.00;;;4.40;;
70953;SDS011;58618;47.490;8.736;2022-08-01T03:21:17;5.10;;;3.95;;
70953;SDS011;58618;47.490;8.736;2022-08-01T03:24:06;4.75;;;4.25;;
70953;SDS011;58618;47.490;8.736;2022-08-01T03:26:56;8.70;;;3.90;;
70953;SDS011;58618;47.490;8.736;2022-08-01T03:29:46;5.05;;;4.32;;
70953;SDS011;58618;47.490;8.736;2022-08-01T03:32:35;5.03;;;4.53;;
70953;SDS011;58618;47.490;8.736;2022-08-01T03:35:23;4.80;;;4.13;;
70953;SDS011;58618;47.490;8.736;2022-08-01T03:38:17;10.52;;;4.65;;
70953;SDS011;58618;47.490;8.736;2022-08-01T03:41:08;4.87;;;4.33;;
70953;SDS011;58618;47.490;8.736;2022-08-01T03:44:00;5.05;;;4.55;;
70953;SDS011;58618;47.490;8.736;2022-08-01T03:46:54;6.30;;;4.63;;
70953;SDS011;58618;47.490;8.736;2022-08-01T03:49:45;5.28;;;4.60;;
70953;SDS011;58618;47.490;8.736;2022-08-01T03:52:35;6.07;;;4.22;;
70953;SDS011;58618;47.490;8.736;2022-08-01T03:55:25;6.17;;;4.60;;
70953;SDS011;58618;47.490;8.736;2022-08-01T03:58:13;5.40;;;4.30;;
70953;SDS011;58618;47.490;8.736;2022-08-01T04:01:01;7.63;;;4.20;;
70953;SDS011;58618;47.490;8.736;2022-08-01T04:03:50;5.47;;;4.13;;
70953;SDS011;58618;47.490;8.736;2022-08-01T04:06:38;4.80;;;4.30;;
70953;SDS011;58618;47.490;8.736;2022-08-01T04:09:25;5.07;;;4.30;;
70953;SDS011;58618;47.490;8.736;2022-08-01T04:12:13;4.57;;;4.13;;
70953;SDS011;58618;47.490;8.736;2022-08-01T04:15:00;5.15;;;4.20;;
70953;SDS011;58618;47.490;8.736;2022-08-01T04:17:48;7.82;;;4.22;;
70953;SDS011;58618;47.490;8.736;2022-08-01T04:20:37;4.93;;;4.43;;
70953;SDS011;58618;47.490;8.736;2022-08-01T04:23:24;5.00;;;3.97;;
70953;SDS011;58618;47.490;8.736;2022-08-01T04:26:13;4.88;;;3.95;;
70953;SDS011;58618;47.490;8.736;2022-08-01T04:29:02;4.90;;;3.92;;
70953;SDS011;58618;47.490;8.736;2022-08-01T04:31:53;4.80;;;4.00;;
70953;SDS011;58618;47.490;8.736;2022-08-01T04:34:42;6.03;;;4.35;;
70953;SDS011;58618;47.490;8.736;2022-08-01T04:37:34;6.27;;;4.10;;
70953;SDS011;58618;47.490;8.736;2022-08-01T04:40:23;5.05;;;4.00;;
70953;SDS011;58618;47.490;8.736;2022-08-01T04:43:12;4.65;;;4.03;;
70953;SDS011;58618;47.490;8.736;2022-08-01T04:46:00;5.13;;;4.25;;
70953;SDS011;58618;47.490;8.736;2022-08-01T04:48:49;5.68;;;4.28;;
70953;SDS011;58618;47.490;8.736;2022-08-01T04:51:49;6.23;;;4.37;;
70953;SDS011;58618;47.490;8.736;2022-08-01T04:54:39;4.85;;;4.22;;
70953;SDS011;58618;47.490;8.736;2022-08-01T04:57:26;5.70;;;4.10;;
70953;SDS011;58618;47.490;8.736;2022-08-01T05:00:14;5.78;;;4.40;;
70953;SDS011;58618;47.490;8.736;2022-08-01T05:03:03;4.93;;;4.22;;
70953;SDS011;58618;47.490;8.736;2022-08-01T05:05:50;6.43;;;3.93;;
70953;SDS011;58618;47.490;8.736;2022-08-01T05:08:38;4.53;;;3.97;;
70953;SDS011;58618;47.490;8.736;2022-08-01T05:11:28;6.50;;;4.35;;
70953;SDS011;58618;47.490;8.736;2022-08-01T05:14:16;5.05;;;4.03;;
70953;SDS011;58618;47.490;8.736;2022-08-01T05:17:04;5.78;;;4.63;;
70953;SDS011;58618;47.490;8.736;2022-08-01T05:19:54;5.00;;;4.07;;
70953;SDS011;58618;47.490;8.736;2022-08-01T05:22:41;4.60;;;4.00;;
70953;SDS011;58618;47.490;8.736;2022-08-01T05:25:28;3.80;;;3.40;;
70953;SDS011;58618;47.490;8.736;2022-08-01T05:28:17;5.55;;;3.72;;
70953;SDS011;58618;47.490;8.736;2022-08-01T05:31:04;3.95;;;3.40;;
70953;SDS011;58618;47.490;8.736;2022-08-01T05:33:52;4.20;;;3.23;;
70953;SDS011;58618;47.490;8.736;2022-08-01T05:36:39;4.30;;;3.00;;
70953;SDS011;58618;47.490;8.736;2022-08-01T05:39:26;5.55;;;3.50;;
70953;SDS011;58618;47.490;8.736;2022-08-01T05:42:13;3.70;;;2.95;;
70953;SDS011;58618;47.490;8.736;2022-08-01T05:45:02;5.18;;;3.10;;
70953;SDS011;58618;47.490;8.736;2022-08-01T05:47:50;6.50;;;3.20;;
70953;SDS011;58618;47.490;8.736;2022-08-01T05:50:37;4.15;;;3.22;;
70953;SDS011;58618;47.490;8.736;2022-08-01T05:53:25;4.15;;;3.08;;
70953;SDS011;58618;47.490;8.736;2022-08-01T05:56:12;4.22;;;2.90;;
70953;SDS011;58618;47.490;8.736;2022-08-01T05:59:00;3.20;;;2.67;;
70953;SDS011;58618;47.490;8.736;2022-08-01T06:01:49;3.60;;;2.60;;
70953;SDS011;58618;47.490;8.736;2022-08-01T06:04:36;4.05;;;2.90;;
70953;SDS011;58618;47.490;8.736;2022-08-01T06:07:23;3.35;;;2.63;;
70953;SDS011;58618;47.490;8.736;2022-08-01T06:10:10;3.55;;;2.83;;
70953;SDS011;58618;47.490;8.736;2022-08-01T06:12:58;4.78;;;2.75;;
70953;SDS011;58618;47.490;8.736;2022-08-01T06:15:48;4.27;;;2.67;;
70953;SDS011;58618;47.490;8.736;2022-08-01T06:18:37;3.78;;;2.67;;
70953;SDS011;58618;47.490;8.736;2022-08-01T06:21:24;4.20;;;2.83;;
70953;SDS011;58618;47.490;8.736;2022-08-01T06:24:12;3.45;;;2.60;;
70953;SDS011;58618;47.490;8.736;2022-08-01T06:26:59;2.80;;;2.50;;
70953;SDS011;58618;47.490;8.736;2022-08-01T06:29:46;4.27;;;2.70;;
70953;SDS011;58618;47.490;8.736;2022-08-01T06:32:34;3.88;;;2.22;;
70953;SDS011;58618;47.490;8.736;2022-08-01T06:35:23;2.47;;;2.20;;
70953;SDS011;58618;47.490;8.736;2022-08-01T06:38:10;5.10;;;2.20;;
70953;SDS011;58618;47.490;8.736;2022-08-01T06:40:58;4.82;;;2.30;;
70953;SDS011;58618;47.490;8.736;2022-08-01T06:43:45;4.60;;;2.27;;
70953;SDS011;58618;47.490;8.736;2022-08-01T06:46:32;4.30;;;2.10;;
70953;SDS011;58618;47.490;8.736;2022-08-01T06:49:21;2.90;;;2.38;;
70953;SDS011;58618;47.490;8.736;2022-08-01T06:52:09;3.17;;;2.55;;
70953;SDS011;58618;47.490;8.736;2022-08-01T06:54:57;3.25;;;2.50;;
70953;SDS011;58618;47.490;8.736;2022-08-01T06:57:45;4.27;;;2.47;;
70953;SDS011;58618;47.490;8.736;2022-08-01T07:00:33;3.92;;;2.38;;
70953;SDS011;58618;47.490;8.736;2022-08-01T07:03:20;4.10;;;2.65;;
70953;SDS011;58618;47.490;8.736;2022-08-01T07:06:08;2.28;;;2.08;;
70953;SDS011;58618;47.490;8.736;2022-08-01T07:08:57;3.55;;;2.55;;
70953;SDS011;58618;47.490;8.736;2022-08-01T07:11:46;4.90;;;2.70;;
70953;SDS011;58618;47.490;8.736;2022-08-01T07:14:34;4.10;;;2.60;;
70953;SDS011;58618;47.490;8.736;2022-08-01T07:17:21;3.97;;;2.58;;
70953;SDS011;58618;47.490;8.736;2022-08-01T07:20:09;4.78;;;2.70;;
70953;SDS011;58618;47.490;8.736;2022-08-01T07:22:57;5.70;;;2.58;;
70953;SDS011;58618;47.490;8.736;2022-08-01T07:25:46;4.40;;;2.50;;
70953;SDS011;58618;47.490;8.736;2022-08-01T07:28:34;4.47;;;2.42;;
70953;SDS011;58618;47.490;8.736;2022-08-01T07:31:22;2.95;;;2.58;;
70953;SDS011;58618;47.490;8.736;2022-08-01T07:34:09;3.03;;;2.60;;
70953;SDS011;58618;47.490;8.736;2022-08-01T07:37:00;4.10;;;2.60;;
70953;SDS011;58618;47.490;8.736;2022-08-01T07:39:47;3.43;;;2.33;;
70953;SDS011;58618;47.490;8.736;2022-08-01T07:42:36;3.83;;;2.72;;
70953;SDS011;58618;47.490;8.736;2022-08-01T07:45:23;4.50;;;2.70;;
70953;SDS011;58618;47.490;8.736;2022-08-01T07:48:12;3.55;;;2.75;;
70953;SDS011;58618;47.490;8.736;2022-08-01T07:50:59;3.30;;;2.63;;
70953;SDS011;58618;47.490;8.736;2022-08-01T07:53:47;3.43;;;2.60;;
70953;SDS011;58618;47.490;8.736;2022-08-01T07:56:34;4.13;;;2.75;;
70953;SDS011;58618;47.490;8.736;2022-08-01T07:59:23;3.00;;;2.70;;
70953;SDS011;58618;47.490;8.736;2022-08-01T08:02:11;3.53;;;2.55;;
70953;SDS011;58618;47.490;8.736;2022-08-01T08:04:58;5.70;;;2.60;;
70953;SDS011;58618;47.490;8.736;2022-08-01T08:07:45;5.83;;;2.53;;
70953;SDS011;58618;47.490;8.736;2022-08-01T08:10:33;4.13;;;2.40;;
70953;SDS011;58618;47.490;8.736;2022-08-01T08:13:20;3.08;;;2.65;;
70953;SDS011;58618;47.490;8.736;2022-08-01T08:16:09;4.95;;;2.92;;
70953;SDS011;58618;47.490;8.736;2022-08-01T08:18:56;4.47;;;2.70;;
70953;SDS011;58618;47.490;8.736;2022-08-01T08:21:43;5.57;;;2.73;;
70953;SDS011;58618;47.490;8.736;2022-08-01T08:24:31;3.53;;;2.60;;
70953;SDS011;58618;47.490;8.736;2022-08-01T08:27:18;3.20;;;2.90;;
70953;SDS011;58618;47.490;8.736;2022-08-01T08:30:06;3.85;;;2.72;;
70953;SDS011;58618;47.490;8.736;2022-08-01T08:32:55;4.00;;;2.60;;
70953;SDS011;58618;47.490;8.736;2022-08-01T08:35:42;3.43;;;2.60;;
70953;SDS011;58618;47.490;8.736;2022-08-01T08:38:30;3.00;;;2.50;;
70953;SDS011;58618;47.490;8.736;2022-08-01T08:41:17;2.58;;;2.30;;
70953;SDS011;58618;47.490;8.736;2022-08-01T08:44:05;4.47;;;2.22;;
70953;SDS011;58618;47.490;8.736;2022-08-01T08:46:53;3.70;;;2.42;;
70953;SDS011;58618;47.490;8.736;2022-08-01T08:49:45;4.13;;;2.40;;
70953;SDS011;58618;47.490;8.736;2022-08-01T08:52:34;2.65;;;2.17;;
70953;SDS011;58618;47.490;8.736;2022-08-01T08:55:24;3.97;;;2.38;;
70953;SDS011;58618;47.490;8.736;2022-08-01T08:58:14;2.85;;;2.25;;
70953;SDS011;58618;47.490;8.736;2022-08-01T09:01:05;4.40;;;2.28;;
70953;SDS011;58618;47.490;8.736;2022-08-01T09:03:52;2.90;;;2.30;;
70953;SDS011;58618;47.490;8.736;2022-08-01T09:06:41;3.75;;;2.40;;
70953;SDS011;58618;47.490;8.736;2022-08-01T09:09:29;2.38;;;2.17;;
70953;SDS011;58618;47.490;8.736;2022-08-01T09:12:16;5.57;;;2.58;;
70953;SDS011;58618;47.490;8.736;2022-08-01T09:15:04;2.97;;;2.10;;
70953;SDS011;58618;47.490;8.736;2022-08-01T09:17:51;2.87;;;2.03;;
70953;SDS011;58618;47.490;8.736;2022-08-01T09:20:39;3.55;;;2.10;;
70953;SDS011;58618;47.490;8.736;2022-08-01T09:23:34;2.55;;;2.00;;
70953;SDS011;58618;47.490;8.736;2022-08-01T09:26:28;2.90;;;2.05;;
70953;SDS011;58618;47.490;8.736;2022-08-01T09:29:18;4.70;;;2.70;;
70953;SDS011;58618;47.490;8.736;2022-08-01T09:32:07;2.70;;;2.30;;
70953;SDS011;58618;47.490;8.736;2022-08-01T09:34:54;2.75;;;2.00;;
70953;SDS011;58618;47.490;8.736;2022-08-01T09:37:41;3.35;;;2.40;;
70953;SDS011;58618;47.490;8.736;2022-08-01T09:43:24;6.50;;;2.22;;
70953;SDS011;58618;47.490;8.736;2022-08-01T09:46:13;3.80;;;2.20;;
70953;SDS011;58618;47.490;8.736;2022-08-01T09:49:02;2.53;;;2.13;;
70953;SDS011;58618;47.490;8.736;2022-08-01T09:51:50;2.70;;;2.03;;
70953;SDS011;58618;47.490;8.736;2022-08-01T09:54:37;3.05;;;2.10;;
70953;SDS011;58618;47.490;8.736;2022-08-01T09:57:26;2.20;;;1.77;;
70953;SDS011;58618;47.490;8.736;2022-08-01T10:00:17;2.28;;;1.73;;
70953;SDS011;58618;47.490;8.736;2022-08-01T10:03:18;2.30;;;2.00;;
70953;SDS011;58618;47.490;8.736;2022-08-01T10:06:18;5.15;;;2.05;;
70953;SDS011;58618;47.490;8.736;2022-08-01T10:09:06;3.00;;;2.28;;
70953;SDS011;58618;47.490;8.736;2022-08-01T10:11:53;3.45;;;2.15;;
70953;SDS011;58618;47.490;8.736;2022-08-01T10:14:42;2.75;;;2.00;;
70953;SDS011;58618;47.490;8.736;2022-08-01T10:17:32;2.53;;;1.77;;
70953;SDS011;58618;47.490;8.736;2022-08-01T10:20:22;2.35;;;2.03;;
70953;SDS011;58618;47.490;8.736;2022-08-01T10:23:11;2.72;;;1.73;;
70953;SDS011;58618;47.490;8.736;2022-08-01T10:26:00;2.88;;;2.08;;
70953;SDS011;58618;47.490;8.736;2022-08-01T10:28:49;2.88;;;2.25;;
70953;SDS011;58618;47.490;8.736;2022-08-01T10:31:38;2.60;;;1.97;;
70953;SDS011;58618;47.490;8.736;2022-08-01T10:34:27;3.38;;;2.45;;
70953;SDS011;58618;47.490;8.736;2022-08-01T10:37:17;4.10;;;2.00;;
70953;SDS011;58618;47.490;8.736;2022-08-01T10:40:05;2.67;;;1.90;;
70953;SDS011;58618;47.490;8.736;2022-08-01T10:42:54;3.75;;;1.90;;
70953;SDS011;58618;47.490;8.736;2022-08-01T10:45:43;4.33;;;2.43;;
70953;SDS011;58618;47.490;8.736;2022-08-01T10:48:31;2.47;;;1.98;;
70953;SDS011;58618;47.490;8.736;2022-08-01T10:51:27;2.45;;;2.20;;
70953;SDS011;58618;47.490;8.736;2022-08-01T10:54:15;3.30;;;2.70;;
70953;SDS011;58618;47.490;8.736;2022-08-01T10:57:03;4.28;;;2.53;;
70953;SDS011;58618;47.490;8.736;2022-08-01T10:59:52;3.60;;;2.37;;
70953;SDS011;58618;47.490;8.736;2022-08-01T11:02:40;3.20;;;2.35;;
70953;SDS011;58618;47.490;8.736;2022-08-01T11:05:34;3.25;;;2.50;;
70953;SDS011;58618;47.490;8.736;2022-08-01T11:08:23;4.68;;;2.63;;
70953;SDS011;58618;47.490;8.736;2022-08-01T11:11:12;2.70;;;2.30;;
70953;SDS011;58618;47.490;8.736;2022-08-01T11:14:00;5.20;;;2.60;;
70953;SDS011;58618;47.490;8.736;2022-08-01T11:16:49;3.65;;;2.40;;
70953;SDS011;58618;47.490;8.736;2022-08-01T11:26:18;3.22;;;2.50;;
70953;SDS011;58618;47.490;8.736;2022-08-01T11:29:13;3.53;;;2.67;;
70953;SDS011;58618;47.490;8.736;2022-08-01T11:35:12;4.95;;;2.08;;
70953;SDS011;58618;47.490;8.736;2022-08-01T11:41:15;3.95;;;2.40;;
70953;SDS011;58618;47.490;8.736;2022-08-01T11:44:06;3.00;;;2.13;;
70953;SDS011;58618;47.490;8.736;2022-08-01T11:46:56;3.13;;;2.00;;
70953;SDS011;58618;47.490;8.736;2022-08-01T11:49:46;2.50;;;2.17;;
70953;SDS011;58618;47.490;8.736;2022-08-01T11:52:40;2.65;;;2.03;;
70953;SDS011;58618;47.490;8.736;2022-08-01T11:55:28;3.05;;;1.95;;
70953;SDS011;58618;47.490;8.736;2022-08-01T11:58:21;3.47;;;2.00;;
70953;SDS011;58618;47.490;8.736;2022-08-01T12:01:11;2.35;;;1.85;;
70953;SDS011;58618;47.490;8.736;2022-08-01T12:04:00;3.47;;;2.03;;
70953;SDS011;58618;47.490;8.736;2022-08-01T12:06:47;3.53;;;1.95;;
70953;SDS011;58618;47.490;8.736;2022-08-01T12:09:35;4.22;;;2.10;;
70953;SDS011;58618;47.490;8.736;2022-08-01T12:12:22;2.30;;;1.93;;
70953;SDS011;58618;47.490;8.736;2022-08-01T12:15:11;2.78;;;1.80;;
70953;SDS011;58618;47.490;8.736;2022-08-01T12:18:00;3.15;;;2.00;;
70953;SDS011;58618;47.490;8.736;2022-08-01T12:20:50;2.17;;;1.92;;
70953;SDS011;58618;47.490;8.736;2022-08-01T12:23:37;2.47;;;1.70;;
70953;SDS011;58618;47.490;8.736;2022-08-01T12:26:37;2.77;;;1.87;;
70953;SDS011;58618;47.490;8.736;2022-08-01T12:29:32;2.00;;;1.73;;
70953;SDS011;58618;47.490;8.736;2022-08-01T12:32:23;4.22;;;1.75;;
70953;SDS011;58618;47.490;8.736;2022-08-01T12:35:13;2.33;;;1.40;;
70953;SDS011;58618;47.490;8.736;2022-08-01T12:38:02;3.88;;;1.70;;
70953;SDS011;58618;47.490;8.736;2022-08-01T12:40:51;1.90;;;1.57;;
70953;SDS011;58618;47.490;8.736;2022-08-01T12:43:38;2.35;;;1.70;;
70953;SDS011;58618;47.490;8.736;2022-08-01T12:46:26;1.83;;;1.50;;
70953;SDS011;58618;47.490;8.736;2022-08-01T12:49:15;2.70;;;1.60;;
70953;SDS011;58618;47.490;8.736;2022-08-01T12:52:03;1.77;;;1.50;;
70953;SDS011;58618;47.490;8.736;2022-08-01T12:55:03;2.90;;;1.50;;
70953;SDS011;58618;47.490;8.736;2022-08-01T12:58:02;2.33;;;1.60;;
70953;SDS011;58618;47.490;8.736;2022-08-01T13:01:01;1.88;;;1.48;;
70953;SDS011;58618;47.490;8.736;2022-08-01T13:03:56;1.80;;;1.70;;
70953;SDS011;58618;47.490;8.736;2022-08-01T13:06:45;2.10;;;1.67;;
70953;SDS011;58618;47.490;8.736;2022-08-01T13:09:33;2.53;;;1.63;;
70953;SDS011;58618;47.490;8.736;2022-08-01T13:12:20;2.45;;;1.70;;
70953;SDS011;58618;47.490;8.736;2022-08-01T13:15:18;3.20;;;1.50;;
70953;SDS011;58618;47.490;8.736;2022-08-01T13:18:24;1.90;;;1.70;;
70953;SDS011;58618;47.490;8.736;2022-08-01T13:21:14;2.35;;;1.80;;
70953;SDS011;58618;47.490;8.736;2022-08-01T13:24:05;2.63;;;1.30;;
70953;SDS011;58618;47.490;8.736;2022-08-01T13:26:55;2.15;;;1.60;;
70953;SDS011;58618;47.490;8.736;2022-08-01T13:29:45;2.70;;;1.58;;
70953;SDS011;58618;47.490;8.736;2022-08-01T13:32:35;3.25;;;1.70;;
70953;SDS011;58618;47.490;8.736;2022-08-01T13:35:23;4.30;;;1.75;;
70953;SDS011;58618;47.490;8.736;2022-08-01T13:38:10;1.90;;;1.70;;
70953;SDS011;58618;47.490;8.736;2022-08-01T13:40:59;2.17;;;1.70;;
70953;SDS011;58618;47.490;8.736;2022-08-01T13:43:46;2.70;;;1.63;;
70953;SDS011;58618;47.490;8.736;2022-08-01T13:46:34;2.88;;;1.50;;
70953;SDS011;58618;47.490;8.736;2022-08-01T13:49:21;1.83;;;1.60;;
70953;SDS011;58618;47.490;8.736;2022-08-01T13:52:09;2.87;;;1.53;;
70953;SDS011;58618;47.490;8.736;2022-08-01T13:54:56;2.42;;;1.70;;
70953;SDS011;58618;47.490;8.736;2022-08-01T13:57:45;2.38;;;1.58;;
70953;SDS011;58618;47.490;8.736;2022-08-01T14:00:32;2.63;;;1.30;;
70953;SDS011;58618;47.490;8.736;2022-08-01T14:03:19;3.65;;;1.60;;
70953;SDS011;58618;47.490;8.736;2022-08-01T14:06:07;4.30;;;1.70;;
70953;SDS011;58618;47.490;8.736;2022-08-01T14:08:54;2.40;;;1.48;;
70953;SDS011;58618;47.490;8.736;2022-08-01T14:11:41;5.45;;;1.20;;
70953;SDS011;58618;47.490;8.736;2022-08-01T14:14:30;1.58;;;1.10;;
70953;SDS011;58618;47.490;8.736;2022-08-01T14:17:17;2.40;;;1.30;;
70953;SDS011;58618;47.490;8.736;2022-08-01T14:20:05;3.30;;;0.90;;
70953;SDS011;58618;47.490;8.736;2022-08-01T14:22:53;1.73;;;1.10;;
70953;SDS011;58618;47.490;8.736;2022-08-01T14:25:41;1.92;;;1.10;;
70953;SDS011;58618;47.490;8.736;2022-08-01T14:28:28;1.30;;;0.77;;
70953;SDS011;58618;47.490;8.736;2022-08-01T14:31:17;2.45;;;1.00;;
70953;SDS011;58618;47.490;8.736;2022-08-01T14:34:04;1.57;;;0.80;;
70953;SDS011;58618;47.490;8.736;2022-08-01T14:36:51;2.33;;;0.90;;
70953;SDS011;58618;47.490;8.736;2022-08-01T14:39:40;1.58;;;0.75;;
70953;SDS011;58618;47.490;8.736;2022-08-01T14:42:27;1.60;;;0.70;;
70953;SDS011;58618;47.490;8.736;2022-08-01T14:45:14;2.50;;;1.00;;
70953;SDS011;58618;47.490;8.736;2022-08-01T14:48:04;3.00;;;0.80;;
70953;SDS011;58618;47.490;8.736;2022-08-01T14:50:51;1.00;;;0.80;;
70953;SDS011;58618;47.490;8.736;2022-08-01T14:53:38;1.08;;;0.90;;
70953;SDS011;58618;47.490;8.736;2022-08-01T14:56:26;1.70;;;1.00;;
70953;SDS011;58618;47.490;8.736;2022-08-01T14:59:13;1.65;;;1.00;;
70953;SDS011;58618;47.490;8.736;2022-08-01T15:02:00;2.47;;;1.07;;
70953;SDS011;58618;47.490;8.736;2022-08-01T15:04:49;5.15;;;1.10;;
70953;SDS011;58618;47.490;8.736;2022-08-01T15:07:37;1.45;;;1.08;;
70953;SDS011;58618;47.490;8.736;2022-08-01T15:10:24;2.38;;;0.82;;
70953;SDS011;58618;47.490;8.736;2022-08-01T15:13:12;1.67;;;1.00;;
70953;SDS011;58618;47.490;8.736;2022-08-01T15:15:59;1.40;;;0.80;;
70953;SDS011;58618;47.490;8.736;2022-08-01T15:18:47;1.83;;;1.00;;
70953;SDS011;58618;47.490;8.736;2022-08-01T15:21:36;1.40;;;0.90;;
70953;SDS011;58618;47.490;8.736;2022-08-01T15:24:23;13.23;;;1.27;;
70953;SDS011;58618;47.490;8.736;2022-08-01T15:27:10;1.30;;;1.00;;
70953;SDS011;58618;47.490;8.736;2022-08-01T15:29:58;2.00;;;1.07;;
70953;SDS011;58618;47.490;8.736;2022-08-01T15:32:45;2.92;;;1.30;;
70953;SDS011;58618;47.490;8.736;2022-08-01T15:35:33;2.30;;;1.20;;
70953;SDS011;58618;47.490;8.736;2022-08-01T15:38:21;1.15;;;1.02;;
70953;SDS011;58618;47.490;8.736;2022-08-01T15:41:09;2.55;;;1.20;;
70953;SDS011;58618;47.490;8.736;2022-08-01T15:43:56;1.70;;;1.10;;
70953;SDS011;58618;47.490;8.736;2022-08-01T15:46:43;1.73;;;0.98;;
70953;SDS011;58618;47.490;8.736;2022-08-01T15:49:31;2.30;;;1.27;;
70953;SDS011;58618;47.490;8.736;2022-08-01T15:52:21;2.05;;;1.30;;
70953;SDS011;58618;47.490;8.736;2022-08-01T15:55:10;1.67;;;1.35;;
70953;SDS011;58618;47.490;8.736;2022-08-01T15:57:57;1.80;;;1.30;;
70953;SDS011;58618;47.490;8.736;2022-08-01T16:00:44;2.97;;;1.40;;
70953;SDS011;58618;47.490;8.736;2022-08-01T16:03:32;2.50;;;1.50;;
70953;SDS011;58618;47.490;8.736;2022-08-01T16:06:19;2.45;;;1.30;;
70953;SDS011;58618;47.490;8.736;2022-08-01T16:09:07;2.28;;;1.52;;
70953;SDS011;58618;47.490;8.736;2022-08-01T16:11:56;1.70;;;1.10;;
70953;SDS011;58618;47.490;8.736;2022-08-01T16:14:43;2.58;;;1.40;;
70953;SDS011;58618;47.490;8.736;2022-08-01T16:17:30;3.08;;;1.50;;
70953;SDS011;58618;47.490;8.736;2022-08-01T16:20:18;4.68;;;1.38;;
70953;SDS011;58618;47.490;8.736;2022-08-01T16:23:05;3.38;;;1.63;;
70953;SDS011;58618;47.490;8.736;2022-08-01T16:25:53;2.50;;;1.40;;
70953;SDS011;58618;47.490;8.736;2022-08-01T16:28:41;2.80;;;1.40;;
70953;SDS011;58618;47.490;8.736;2022-08-01T16:31:29;2.47;;;1.60;;
70953;SDS011;58618;47.490;8.736;2022-08-01T16:34:17;2.03;;;1.50;;
70953;SDS011;58618;47.490;8.736;2022-08-01T16:37:04;1.60;;;1.20;;
70953;SDS011;58618;47.490;8.736;2022-08-01T16:39:51;2.13;;;1.50;;
70953;SDS011;58618;47.490;8.736;2022-08-01T16:42:39;3.63;;;1.60;;
70953;SDS011;58618;47.490;8.736;2022-08-01T16:45:27;2.10;;;1.58;;
70953;SDS011;58618;47.490;8.736;2022-08-01T16:48:15;2.22;;;1.60;;
70953;SDS011;58618;47.490;8.736;2022-08-01T16:51:03;3.05;;;1.80;;
70953;SDS011;58618;47.490;8.736;2022-08-01T16:53:51;3.10;;;1.77;;
70953;SDS011;58618;47.490;8.736;2022-08-01T16:56:39;3.00;;;1.67;;
70953;SDS011;58618;47.490;8.736;2022-08-01T16:59:26;3.92;;;1.80;;
70953;SDS011;58618;47.490;8.736;2022-08-01T17:02:15;3.42;;;1.80;;
70953;SDS011;58618;47.490;8.736;2022-08-01T17:05:03;4.03;;;1.90;;
70953;SDS011;58618;47.490;8.736;2022-08-01T17:07:51;3.47;;;1.80;;
70953;SDS011;58618;47.490;8.736;2022-08-01T17:10:38;3.00;;;1.58;;
70953;SDS011;58618;47.490;8.736;2022-08-01T17:13:25;2.33;;;1.42;;